createdAt,value
2018-03-21T00:01:48.114Z,49.20
2018-03-21T00:04:16.597Z,49.53
2018-03-21T00:06:45.090Z,49.35
2018-03-21T00:09:13.562Z,49.17
2018-03-21T00:11:42.142Z,50.13
2018-03-21T00:14:10.518Z,50.48
2018-03-21T00:16:38.997Z,51.59
2018-03-21T00:19:07.621Z,53.67
2018-03-21T00:21:36.304Z,52.33
2018-03-21T00:24:04.644Z,50.57
2018-03-21T00:26:32.921Z,50.63
2018-03-21T00:29:01.609Z,51.13
2018-03-21T00:31:29.798Z,50.75
2018-03-21T00:33:58.366Z,50.82
2018-03-21T00:36:27.047Z,50.59
2018-03-21T00:38:55.414Z,50.11
2018-03-21T00:41:23.905Z,50.18
2018-03-21T00:43:52.490Z,49.90
2018-03-21T00:46:20.970Z,51.22
2018-03-21T00:48:49.445Z,50.67
2018-03-21T00:51:17.811Z,49.96
2018-03-21T00:53:46.216Z,50.96
2018-03-21T00:56:14.789Z,51.36
2018-03-21T00:58:43.265Z,54.52
2018-03-21T01:01:11.646Z,53.19
2018-03-21T01:03:40.236Z,51.51
2018-03-21T01:06:08.694Z,50.92
2018-03-21T01:08:37.190Z,53.91
2018-03-21T01:11:05.665Z,53.14
2018-03-21T01:13:34.136Z,53.37
2018-03-21T01:16:02.532Z,54.99
2018-03-21T01:18:31.215Z,53.01
2018-03-21T01:20:59.803Z,52.75
2018-03-21T01:23:28.080Z,52.13
2018-03-21T01:25:56.559Z,50.44
2018-03-21T01:28:25.232Z,50.66
2018-03-21T01:30:53.763Z,51.38
2018-03-21T01:33:21.990Z,51.10
2018-03-21T01:35:50.426Z,51.12
2018-03-21T01:38:19.201Z,52.47
2018-03-21T01:40:47.940Z,53.96
2018-03-21T01:43:16.326Z,55.46
2018-03-21T01:45:44.689Z,55.88
2018-03-21T01:48:13.076Z,55.39
2018-03-21T01:50:41.657Z,55.39
2018-03-21T01:53:12.180Z,59.42
2018-03-21T01:55:40.575Z,55.34
2018-03-21T01:58:09.258Z,54.85
2018-03-21T02:00:38.244Z,53.78
2018-03-21T02:03:06.508Z,53.14
2018-03-21T02:05:35.110Z,51.85
2018-03-21T02:08:03.390Z,53.25
2018-03-21T02:10:31.949Z,52.13
2018-03-21T02:13:00.548Z,53.00
2018-03-21T02:15:29.232Z,54.77
2018-03-21T02:17:57.954Z,53.57
2018-03-21T02:20:26.117Z,53.42
2018-03-21T02:22:54.878Z,53.73
2018-03-21T02:25:23.154Z,51.98
2018-03-21T02:27:51.642Z,54.09
2018-03-21T02:30:20.015Z,54.11
2018-03-21T02:32:48.388Z,54.86
2018-03-21T02:35:16.666Z,54.89
2018-03-21T02:37:44.944Z,53.93
2018-03-21T02:40:13.108Z,53.71
2018-03-21T02:42:41.507Z,53.52
2018-03-21T02:45:10.376Z,52.46
2018-03-21T02:47:38.967Z,52.93
2018-03-21T02:50:07.431Z,54.08
2018-03-21T02:52:35.674Z,53.77
2018-03-21T02:55:04.301Z,53.85
2018-03-21T02:57:32.668Z,54.20
2018-03-21T03:00:00.976Z,53.75
2018-03-21T03:02:29.950Z,54.42
2018-03-21T03:04:58.945Z,54.44
2018-03-21T03:07:27.641Z,55.98
2018-03-21T03:09:55.908Z,56.31
2018-03-21T03:12:24.386Z,55.78
2018-03-21T03:14:52.867Z,56.87
2018-03-21T03:17:20.994Z,56.45
2018-03-21T03:19:49.616Z,57.47
2018-03-21T03:22:18.139Z,60.15
2018-03-21T03:24:47.181Z,58.90
2018-03-21T03:27:15.569Z,57.07
2018-03-21T03:29:44.154Z,56.68
2018-03-21T03:32:12.732Z,55.06
2018-03-21T03:34:41.209Z,55.03
2018-03-21T03:37:09.600Z,56.69
2018-03-21T03:39:38.286Z,60.45
2018-03-21T03:42:06.762Z,58.36
2018-03-21T03:44:35.245Z,56.82
2018-03-21T03:47:03.715Z,58.38
2018-03-21T03:49:31.997Z,56.89
2018-03-21T03:52:00.478Z,57.86
2018-03-21T03:54:28.846Z,58.72
2018-03-21T03:56:57.337Z,57.23
2018-03-21T03:59:25.658Z,59.43
2018-03-21T04:01:54.298Z,58.57
2018-03-21T04:04:23.085Z,56.71
2018-03-21T04:06:51.519Z,59.58
2018-03-21T04:09:19.846Z,59.68
2018-03-21T04:11:48.521Z,58.30
2018-03-21T04:14:16.691Z,59.05
2018-03-21T04:16:45.077Z,56.60
2018-03-21T04:19:13.662Z,57.26
2018-03-21T04:21:42.065Z,57.54
2018-03-21T04:24:10.617Z,56.65
2018-03-21T04:26:39.216Z,56.48
2018-03-21T04:29:07.876Z,57.15
2018-03-21T04:31:37.498Z,56.94
2018-03-21T04:34:05.643Z,58.82
2018-03-21T04:36:34.253Z,57.73
2018-03-21T04:39:02.733Z,56.86
2018-03-21T04:41:31.303Z,58.88
2018-03-21T04:43:59.901Z,59.57
2018-03-21T04:46:28.484Z,58.68
2018-03-21T04:48:57.033Z,58.58
2018-03-21T04:51:25.633Z,58.13
2018-03-21T04:53:54.180Z,56.12
2018-03-21T04:56:22.815Z,55.62
2018-03-21T04:58:51.137Z,54.38
2018-03-21T05:01:19.773Z,54.04
2018-03-21T05:03:48.665Z,53.51
2018-03-21T05:06:17.353Z,52.19
2018-03-21T05:08:45.638Z,51.74
2018-03-21T05:11:14.413Z,51.49
2018-03-21T05:13:42.797Z,51.64
2018-03-21T05:16:11.001Z,51.47
2018-03-21T05:18:39.849Z,51.93
2018-03-21T05:21:08.332Z,51.74
2018-03-21T05:23:37.856Z,51.18
2018-03-21T05:26:06.631Z,51.09
2018-03-21T05:28:35.408Z,50.88
2018-03-21T05:31:03.844Z,50.13
2018-03-21T05:33:32.278Z,50.41
2018-03-21T05:36:00.963Z,52.76
2018-03-21T05:38:29.648Z,56.55
2018-03-21T05:40:58.142Z,58.50
2018-03-21T05:43:26.810Z,56.79
2018-03-21T05:45:55.291Z,56.68
2018-03-21T05:48:23.315Z,58.92
2018-03-21T05:50:51.360Z,60.63
2018-03-21T05:53:19.813Z,56.76
2018-03-21T05:55:48.326Z,55.73
2018-03-21T05:58:16.669Z,58.86
2018-03-21T06:00:44.598Z,56.36
2018-03-21T06:03:13.109Z,56.85
2018-03-21T06:05:41.597Z,59.94
2018-03-21T06:08:10.277Z,58.51
2018-03-21T06:10:38.866Z,60.50
2018-03-21T06:13:07.454Z,59.22
2018-03-21T06:15:35.827Z,58.80
2018-03-21T06:18:04.412Z,60.16
2018-03-21T06:20:32.999Z,61.05
2018-03-21T06:23:01.271Z,59.68
2018-03-21T06:25:29.850Z,61.81
2018-03-21T06:27:58.333Z,60.46
2018-03-21T06:30:26.717Z,57.89
2018-03-21T06:32:54.980Z,59.17
2018-03-21T06:35:23.264Z,60.85
2018-03-21T06:37:51.845Z,60.93
2018-03-21T06:40:20.362Z,57.80
2018-03-21T06:42:48.800Z,57.87
2018-03-21T06:45:17.381Z,56.97
2018-03-21T06:47:45.851Z,59.06
2018-03-21T06:50:14.452Z,60.95
2018-03-21T06:52:43.145Z,58.33
2018-03-21T06:55:12.075Z,59.21
2018-03-21T06:57:40.626Z,56.14
2018-03-21T07:00:09.105Z,58.67
2018-03-21T07:02:37.544Z,55.78
2018-03-21T07:05:06.063Z,56.89
2018-03-21T07:07:34.937Z,55.42
2018-03-21T07:10:03.527Z,54.39
2018-03-21T07:12:32.206Z,55.68
2018-03-21T07:15:12.416Z,54.52
2018-03-21T07:17:41.071Z,56.71
2018-03-21T07:20:10.186Z,57.80
2018-03-21T07:22:38.439Z,55.93
2018-03-21T07:25:07.310Z,55.70
2018-03-21T07:27:36.057Z,54.27
2018-03-21T07:30:04.582Z,53.79
2018-03-21T07:32:32.904Z,52.22
2018-03-21T07:35:01.871Z,52.10
2018-03-21T07:37:30.247Z,50.87
2018-03-21T07:39:58.703Z,50.92
2018-03-21T07:42:26.816Z,50.86
2018-03-21T07:44:55.350Z,53.46
2018-03-21T07:47:23.735Z,53.59
2018-03-21T07:49:52.221Z,53.82
2018-03-21T07:52:20.598Z,56.46
2018-03-21T07:54:49.070Z,55.41
2018-03-21T07:57:17.450Z,59.24
2018-03-21T07:59:45.737Z,59.77
2018-03-21T08:02:14.455Z,55.98
2018-03-21T08:04:43.396Z,56.12
2018-03-21T08:07:11.767Z,57.45
2018-03-21T08:09:40.280Z,58.44
2018-03-21T08:12:09.249Z,56.75
2018-03-21T08:14:37.833Z,58.59
2018-03-21T08:17:06.385Z,58.86
2018-03-21T08:19:34.795Z,57.76
2018-03-21T08:22:03.998Z,57.45
2018-03-21T08:24:32.298Z,56.99
2018-03-21T08:27:00.852Z,58.03
2018-03-21T08:29:29.333Z,58.70
2018-03-21T08:31:57.901Z,57.65
2018-03-21T08:34:26.521Z,57.56
2018-03-21T08:36:55.180Z,60.50
2018-03-21T08:39:23.469Z,61.13
2018-03-21T08:41:52.040Z,59.87
2018-03-21T08:44:20.526Z,58.01
2018-03-21T08:46:48.884Z,58.09
2018-03-21T08:49:17.384Z,57.14
2018-03-21T08:51:45.786Z,59.44
2018-03-21T08:54:14.138Z,62.16
2018-03-21T08:56:42.817Z,59.70
2018-03-21T08:59:11.026Z,60.11
2018-03-21T09:01:39.582Z,60.78
2018-03-21T09:04:07.772Z,58.89
2018-03-21T09:06:36.027Z,57.63
2018-03-21T09:09:04.401Z,60.08
2018-03-21T09:11:32.921Z,60.01
2018-03-21T09:14:01.674Z,61.90
2018-03-21T09:16:30.182Z,60.72
2018-03-21T09:18:58.842Z,60.43
2018-03-21T09:21:27.464Z,59.58
2018-03-21T09:23:55.802Z,60.21
2018-03-21T09:26:24.064Z,60.33
2018-03-21T09:28:52.353Z,59.22
2018-03-21T09:31:21.004Z,57.46
2018-03-21T09:33:49.508Z,61.16
2018-03-21T09:36:17.998Z,63.77
2018-03-21T09:38:46.586Z,63.44
2018-03-21T09:41:15.455Z,62.90
2018-03-21T09:43:43.850Z,61.99
2018-03-21T09:46:12.438Z,62.34
2018-03-21T09:48:41.047Z,63.17
2018-03-21T09:51:09.184Z,60.78
2018-03-21T09:53:37.569Z,60.79
2018-03-21T09:56:06.131Z,60.10
2018-03-21T09:58:34.734Z,58.72
2018-03-21T10:01:03.420Z,57.15
2018-03-21T10:03:31.780Z,59.11
2018-03-21T10:06:00.182Z,56.81
2018-03-21T10:08:28.964Z,56.77
2018-03-21T10:10:57.218Z,58.16
2018-03-21T10:13:25.511Z,55.22
2018-03-21T10:15:54.024Z,54.55
2018-03-21T10:18:22.520Z,57.87
2018-03-21T10:20:51.054Z,60.26
2018-03-21T10:23:19.595Z,61.06
2018-03-21T10:25:47.808Z,61.04
2018-03-21T10:28:16.304Z,59.66
2018-03-21T10:30:44.672Z,60.15
2018-03-21T10:33:13.153Z,59.98
2018-03-21T10:35:41.934Z,59.54
2018-03-21T10:38:10.041Z,62.04
2018-03-21T10:40:38.904Z,58.85
2018-03-21T10:43:07.389Z,59.48
2018-03-21T10:45:35.854Z,59.73
2018-03-21T10:48:04.527Z,60.74
2018-03-21T10:50:33.021Z,60.49
2018-03-21T10:53:01.202Z,59.24
2018-03-21T10:55:29.678Z,59.98
2018-03-21T10:57:58.050Z,58.98
2018-03-21T11:00:26.541Z,59.52
2018-03-21T11:03:00.937Z,58.93
2018-03-21T11:05:29.244Z,60.43
2018-03-21T11:07:58.012Z,58.71
2018-03-21T11:10:26.488Z,58.25
2018-03-21T11:12:55.297Z,61.56
2018-03-21T11:15:23.768Z,59.89
2018-03-21T11:17:52.364Z,61.93
2018-03-21T11:20:20.942Z,62.02
2018-03-21T11:22:49.406Z,61.99
2018-03-21T11:25:17.584Z,57.61
2018-03-21T11:27:46.792Z,57.86
2018-03-21T11:30:15.900Z,59.50
2018-03-21T11:32:44.887Z,58.63
2018-03-21T11:35:13.982Z,59.48
2018-03-21T11:37:42.606Z,56.87
2018-03-21T11:40:12.404Z,58.54
2018-03-21T11:42:43.364Z,56.35
2018-03-21T11:45:12.185Z,56.70
2018-03-21T11:47:40.524Z,54.42
2018-03-21T11:50:09.043Z,56.23
2018-03-21T11:52:37.635Z,53.08
2018-03-21T11:55:05.902Z,56.20
2018-03-21T11:57:34.486Z,62.43
2018-03-21T12:00:02.950Z,55.89
2018-03-21T12:02:31.450Z,56.13
2018-03-21T12:05:00.040Z,54.35
2018-03-21T12:07:28.511Z,52.37
2018-03-21T12:09:56.780Z,52.36
2018-03-21T12:12:25.262Z,50.73
2018-03-21T12:14:53.637Z,51.00
2018-03-21T12:17:21.925Z,50.32
2018-03-21T12:19:50.812Z,50.72
2018-03-21T12:22:19.100Z,52.77
2018-03-21T12:24:47.261Z,52.96
2018-03-21T12:27:15.793Z,50.49
2018-03-21T12:29:44.531Z,48.86
2018-03-21T12:32:12.448Z,51.69
2018-03-21T12:34:40.380Z,49.77
2018-03-21T12:37:08.947Z,50.31
2018-03-21T12:39:36.884Z,52.06
2018-03-21T12:42:04.830Z,52.80
2018-03-21T12:44:32.780Z,50.77
2018-03-21T12:47:00.750Z,50.44
2018-03-21T12:49:28.731Z,49.28
2018-03-21T12:51:56.655Z,49.16
2018-03-21T12:54:25.021Z,51.01
2018-03-21T12:56:53.494Z,47.50
2018-03-21T12:59:21.878Z,48.95
2018-03-21T13:01:50.268Z,47.57
2018-03-21T13:04:18.859Z,48.60
2018-03-21T13:06:47.330Z,47.23
2018-03-21T13:09:15.948Z,47.30
2018-03-21T13:11:44.290Z,49.67
2018-03-21T13:14:12.906Z,53.65
2018-03-21T13:16:41.453Z,55.99
2018-03-21T13:19:09.834Z,56.06
2018-03-21T13:21:38.219Z,52.59
2018-03-21T13:24:06.685Z,52.56
2018-03-21T13:26:34.967Z,49.66
2018-03-21T13:29:03.245Z,51.88
2018-03-21T13:31:31.397Z,53.67
2018-03-21T13:33:59.993Z,52.09
2018-03-21T13:36:28.578Z,50.28
2018-03-21T13:38:57.454Z,51.06
2018-03-21T13:41:25.858Z,50.11
2018-03-21T13:43:54.431Z,51.99
2018-03-21T13:46:23.120Z,48.57
2018-03-21T13:48:51.273Z,48.68
2018-03-21T13:51:19.666Z,47.23
2018-03-21T13:53:48.540Z,47.21
2018-03-21T13:56:16.938Z,48.44
2018-03-21T13:58:45.214Z,48.90
2018-03-21T14:01:13.572Z,49.42
2018-03-21T14:03:42.077Z,49.82
2018-03-21T14:06:10.445Z,50.87
2018-03-21T14:08:38.614Z,50.71
2018-03-21T14:11:06.906Z,51.17
2018-03-21T14:13:35.174Z,51.45
2018-03-21T14:16:03.848Z,50.54
2018-03-21T14:18:32.526Z,48.75
2018-03-21T14:21:00.916Z,48.13
2018-03-21T14:23:29.648Z,50.88
2018-03-21T14:25:58.278Z,51.71
2018-03-21T14:28:26.769Z,54.08
2018-03-21T14:30:55.598Z,53.21
2018-03-21T14:33:23.830Z,52.92
2018-03-21T14:35:52.309Z,54.23
2018-03-21T14:38:20.997Z,55.07
2018-03-21T14:40:49.368Z,54.58
2018-03-21T14:43:17.759Z,53.91
2018-03-21T14:45:46.219Z,52.17
2018-03-21T14:48:14.818Z,51.96
2018-03-21T14:50:43.298Z,52.72
2018-03-21T14:53:11.661Z,52.83
2018-03-21T14:55:40.054Z,51.99
2018-03-21T14:58:08.381Z,51.74
2018-03-21T15:00:36.808Z,52.09
2018-03-21T15:03:05.390Z,50.65
2018-03-21T15:05:33.601Z,52.53
2018-03-21T15:08:02.248Z,51.72
2018-03-21T15:10:30.630Z,51.84
2018-03-21T15:12:59.102Z,52.40
2018-03-21T15:15:27.481Z,54.16
2018-03-21T15:17:55.952Z,53.77
2018-03-21T15:20:24.446Z,54.13
2018-03-21T15:22:53.139Z,53.88
2018-03-21T15:25:22.121Z,53.01
2018-03-21T15:27:50.897Z,52.98
2018-03-21T15:30:19.194Z,55.06
2018-03-21T15:32:47.561Z,54.88
2018-03-21T15:35:15.966Z,56.13
2018-03-21T15:37:44.530Z,54.99
2018-03-21T15:40:13.263Z,53.00
2018-03-21T15:42:41.489Z,54.43
2018-03-21T15:45:09.862Z,54.68
2018-03-21T15:47:38.294Z,56.13
2018-03-21T15:50:06.730Z,56.10
2018-03-21T15:52:35.088Z,55.42
2018-03-21T15:55:03.381Z,55.03
2018-03-21T15:57:31.706Z,54.95
2018-03-21T16:00:00.143Z,56.08
2018-03-21T16:02:28.618Z,54.20
2018-03-21T16:04:56.880Z,53.82
2018-03-21T16:07:25.369Z,54.01
2018-03-21T16:09:53.789Z,54.89
2018-03-21T16:12:22.433Z,54.80
2018-03-21T16:14:50.809Z,54.52
2018-03-21T16:17:19.173Z,55.05
2018-03-21T16:19:47.677Z,54.65
2018-03-21T16:22:16.050Z,56.78
2018-03-21T16:24:44.436Z,55.50
2018-03-21T16:27:13.004Z,56.75
2018-03-21T16:29:41.393Z,55.94
2018-03-21T16:32:10.070Z,56.95
2018-03-21T16:34:38.563Z,56.79
2018-03-21T16:37:07.233Z,57.34
2018-03-21T16:39:35.522Z,56.69
2018-03-21T16:42:03.913Z,56.68
2018-03-21T16:44:32.200Z,56.47
2018-03-21T16:47:00.883Z,56.10
2018-03-21T16:49:29.214Z,56.82
2018-03-21T16:51:57.609Z,60.58
2018-03-21T16:54:26.195Z,59.23
2018-03-21T16:56:54.656Z,58.91
2018-03-21T16:59:23.357Z,58.30
2018-03-21T17:01:52.041Z,59.07
2018-03-21T17:04:20.303Z,58.55
2018-03-21T17:06:48.797Z,58.01
2018-03-21T17:09:17.494Z,58.86
2018-03-21T17:11:45.753Z,57.44
2018-03-21T17:14:14.228Z,57.47
2018-03-21T17:16:42.704Z,57.27
2018-03-21T17:19:11.099Z,57.59
2018-03-21T17:21:39.682Z,59.23
2018-03-21T17:24:08.015Z,63.40
2018-03-21T17:26:36.542Z,62.87
2018-03-21T17:29:05.326Z,62.07
2018-03-21T17:31:33.814Z,59.73
2018-03-21T17:34:02.182Z,59.80
2018-03-21T17:36:30.563Z,60.71
2018-03-21T17:38:59.152Z,58.77
2018-03-21T17:41:27.633Z,59.11
2018-03-21T17:43:56.115Z,61.63
2018-03-21T17:46:24.703Z,60.86
2018-03-21T17:48:53.382Z,59.95
2018-03-21T17:51:22.352Z,59.31
2018-03-21T17:53:50.753Z,59.39
2018-03-21T17:56:19.226Z,59.26
2018-03-21T17:58:47.818Z,57.72
2018-03-21T18:01:16.296Z,59.87
2018-03-21T18:03:44.753Z,61.03
2018-03-21T18:06:13.233Z,63.21
2018-03-21T18:08:41.841Z,64.24
2018-03-21T18:11:10.414Z,62.93
2018-03-21T18:13:38.803Z,61.50
2018-03-21T18:16:07.184Z,60.71
2018-03-21T18:18:35.800Z,60.69
2018-03-21T18:21:04.338Z,60.62
2018-03-21T18:23:33.029Z,61.02
2018-03-21T18:26:01.194Z,61.29
2018-03-21T18:28:29.573Z,61.35
2018-03-21T18:30:58.226Z,60.54
2018-03-21T18:33:26.648Z,60.46
2018-03-21T18:35:55.121Z,61.22
2018-03-21T18:38:23.600Z,60.89
2018-03-21T18:40:52.078Z,60.61
2018-03-21T18:43:20.607Z,60.18
2018-03-21T18:45:49.126Z,58.80
2018-03-21T18:48:17.722Z,60.78
2018-03-21T18:50:45.984Z,61.16
2018-03-21T18:53:14.994Z,61.31
2018-03-21T18:55:43.269Z,64.29
2018-03-21T18:58:12.059Z,62.54
2018-03-21T19:00:40.405Z,61.96
2018-03-21T19:03:08.914Z,62.62
2018-03-21T19:05:37.397Z,62.22
2018-03-21T19:08:05.865Z,62.13
2018-03-21T19:10:34.364Z,62.46
2018-03-21T19:13:03.241Z,62.14
2018-03-21T19:15:31.425Z,62.03
2018-03-21T19:18:00.002Z,61.39
2018-03-21T19:20:28.891Z,62.23
2018-03-21T19:22:57.387Z,61.25
2018-03-21T19:25:25.849Z,60.55
2018-03-21T19:27:54.434Z,60.70
2018-03-21T19:30:22.797Z,60.85
2018-03-21T19:32:51.608Z,61.31
2018-03-21T19:35:20.081Z,60.85
2018-03-21T19:37:48.713Z,61.40
2018-03-21T19:40:17.042Z,60.96
2018-03-21T19:42:45.929Z,61.95
2018-03-21T19:45:14.415Z,62.21
2018-03-21T19:47:42.993Z,61.32
2018-03-21T19:50:11.985Z,62.98
2018-03-21T19:52:40.582Z,61.87
2018-03-21T19:55:08.905Z,61.11
2018-03-21T19:57:37.425Z,61.83
2018-03-21T20:00:06.015Z,61.99
2018-03-21T20:02:34.702Z,64.79
2018-03-21T20:05:03.179Z,64.68
2018-03-21T20:07:31.563Z,63.52
2018-03-21T20:09:59.918Z,65.76
2018-03-21T20:12:28.651Z,63.95
2018-03-21T20:14:57.102Z,63.35
2018-03-21T20:17:25.994Z,65.76
2018-03-21T20:19:54.568Z,65.85
2018-03-21T20:22:23.059Z,66.24
2018-03-21T20:24:51.640Z,64.24
2018-03-21T20:27:20.063Z,62.91
2018-03-21T20:29:48.597Z,63.17
2018-03-21T20:32:16.990Z,62.47
2018-03-21T20:34:45.657Z,61.80
2018-03-21T20:37:14.147Z,61.78
2018-03-21T20:39:42.520Z,61.74
2018-03-21T20:42:11.097Z,64.39
2018-03-21T20:44:39.402Z,65.99
2018-03-21T20:47:07.985Z,65.95
2018-03-21T20:49:36.641Z,64.91
2018-03-21T20:52:04.818Z,64.17
2018-03-21T20:54:33.296Z,62.79
2018-03-21T20:57:01.586Z,64.05
2018-03-21T20:59:30.158Z,63.45
2018-03-21T21:01:58.823Z,63.14
2018-03-21T21:04:27.322Z,63.36
2018-03-21T21:06:55.702Z,63.32
2018-03-21T21:09:24.198Z,63.29
2018-03-21T21:11:52.866Z,62.75
2018-03-21T21:14:21.252Z,62.49
2018-03-21T21:16:49.824Z,63.21
2018-03-21T21:19:18.316Z,63.00
2018-03-21T21:21:46.786Z,62.72
2018-03-21T21:24:15.166Z,62.40
2018-03-21T21:26:43.474Z,62.95
2018-03-21T21:29:12.234Z,63.27
2018-03-21T21:31:40.914Z,64.79
2018-03-21T21:34:09.378Z,64.35
2018-03-21T21:36:38.485Z,63.25
2018-03-21T21:39:06.870Z,63.34
2018-03-21T21:41:35.287Z,62.38
2018-03-21T21:44:03.620Z,62.28
2018-03-21T21:46:31.569Z,64.40
2018-03-21T21:48:59.475Z,64.58
2018-03-21T21:51:27.482Z,63.39
2018-03-21T21:53:55.502Z,64.51
2018-03-21T21:56:23.430Z,63.40
2018-03-21T21:58:51.374Z,63.09
2018-03-21T22:01:19.819Z,62.72
2018-03-21T22:03:47.749Z,61.86
2018-03-21T22:06:15.711Z,61.89
2018-03-21T22:08:43.706Z,65.25
2018-03-21T22:11:11.736Z,64.09
2018-03-21T22:13:39.722Z,63.11
2018-03-21T22:16:07.648Z,62.48
2018-03-21T22:18:35.676Z,62.04
2018-03-21T22:21:03.644Z,61.65
2018-03-21T22:23:32.253Z,61.75
2018-03-21T22:26:00.631Z,61.65
2018-03-21T22:28:28.628Z,61.43
2018-03-21T22:30:56.665Z,61.32
2018-03-21T22:33:24.688Z,61.28
2018-03-21T22:35:52.630Z,61.15
2018-03-21T22:38:20.980Z,61.47
2018-03-21T22:40:48.930Z,61.70
2018-03-21T22:43:17.099Z,61.86
2018-03-21T22:45:45.469Z,63.20
2018-03-21T22:48:13.973Z,62.07
2018-03-21T22:50:42.349Z,62.25
2018-03-21T22:53:10.833Z,61.55
2018-03-21T22:55:39.519Z,62.61
2018-03-21T22:58:07.835Z,62.75
2018-03-21T23:00:36.273Z,62.66
2018-03-21T23:03:05.063Z,63.05
2018-03-21T23:05:33.332Z,63.66
2018-03-21T23:08:02.218Z,66.13
2018-03-21T23:10:30.522Z,65.16
2018-03-21T23:12:58.770Z,63.80
2018-03-21T23:15:27.261Z,65.10
2018-03-21T23:17:55.723Z,65.04
2018-03-21T23:20:24.330Z,64.10
2018-03-21T23:22:52.913Z,63.38
2018-03-21T23:25:20.825Z,63.79
2018-03-21T23:27:48.775Z,62.96
2018-03-21T23:30:16.770Z,62.82
2018-03-21T23:32:44.697Z,62.56
2018-03-21T23:35:12.626Z,63.09
2018-03-21T23:37:40.659Z,63.15
2018-03-21T23:40:09.052Z,63.07
2018-03-21T23:42:37.017Z,63.72
2018-03-21T23:45:05.018Z,62.96
2018-03-21T23:47:32.982Z,62.77
2018-03-21T23:50:00.999Z,63.53
2018-03-21T23:52:28.927Z,61.96
2018-03-21T23:54:56.913Z,62.04
2018-03-21T23:57:24.892Z,62.27
2018-03-21T23:59:52.909Z,62.31
